sensor_id;sensor_type;location;lat;lon;timestamp;P1;durP1;ratioP1;P2;durP2;ratioP2
27013;SDS011;14556;52.222;4.510;2023-09-18T00:00:30;28.27;;;16.33;;
27013;SDS011;14556;52.222;4.510;2023-09-18T00:02:57;25.33;;;15.77;;
27013;SDS011;14556;52.222;4.510;2023-09-18T00:05:24;26.67;;;15.43;;
27013;SDS011;14556;52.222;4.510;2023-09-18T00:07:54;26.47;;;15.87;;
27013;SDS011;14556;52.222;4.510;2023-09-18T00:10:21;27.77;;;15.57;;
27013;SDS011;14556;52.222;4.510;2023-09-18T00:12:47;28.53;;;14.33;;
27013;SDS011;14556;52.222;4.510;2023-09-18T00:15:14;25.27;;;15.00;;
27013;SDS011;14556;52.222;4.510;2023-09-18T00:17:40;27.63;;;15.43;;
27013;SDS011;14556;52.222;4.510;2023-09-18T00:20:07;26.57;;;16.37;;
27013;SDS011;14556;52.222;4.510;2023-09-18T00:22:35;29.83;;;16.53;;
27013;SDS011;14556;52.222;4.510;2023-09-18T00:25:02;23.03;;;14.17;;
27013;SDS011;14556;52.222;4.510;2023-09-18T00:27:30;26.30;;;14.50;;
27013;SDS011;14556;52.222;4.510;2023-09-18T00:29:56;31.00;;;16.23;;
27013;SDS011;14556;52.222;4.510;2023-09-18T00:32:23;32.70;;;15.80;;
27013;SDS011;14556;52.222;4.510;2023-09-18T00:34:50;24.67;;;14.97;;
27013;SDS011;14556;52.222;4.510;2023-09-18T00:37:16;26.00;;;15.07;;
27013;SDS011;14556;52.222;4.510;2023-09-18T00:39:43;29.80;;;16.97;;
27013;SDS011;14556;52.222;4.510;2023-09-18T00:42:10;26.40;;;16.00;;
27013;SDS011;14556;52.222;4.510;2023-09-18T00:44:41;28.13;;;15.53;;
27013;SDS011;14556;52.222;4.510;2023-09-18T00:47:08;28.00;;;16.77;;
27013;SDS011;14556;52.222;4.510;2023-09-18T00:49:36;24.10;;;15.60;;
27013;SDS011;14556;52.222;4.510;2023-09-18T00:52:04;28.23;;;16.37;;
27013;SDS011;14556;52.222;4.510;2023-09-18T00:54:31;28.37;;;16.60;;
27013;SDS011;14556;52.222;4.510;2023-09-18T00:57:00;27.43;;;16.20;;
27013;SDS011;14556;52.222;4.510;2023-09-18T00:59:28;29.40;;;15.70;;
27013;SDS011;14556;52.222;4.510;2023-09-18T01:01:55;29.27;;;17.50;;
27013;SDS011;14556;52.222;4.510;2023-09-18T01:04:21;27.80;;;16.87;;
27013;SDS011;14556;52.222;4.510;2023-09-18T01:06:50;25.53;;;16.80;;
27013;SDS011;14556;52.222;4.510;2023-09-18T01:09:17;29.27;;;17.07;;
27013;SDS011;14556;52.222;4.510;2023-09-18T01:12:08;28.33;;;17.00;;
27013;SDS011;14556;52.222;4.510;2023-09-18T01:17:22;29.33;;;17.47;;
27013;SDS011;14556;52.222;4.510;2023-09-18T01:19:49;28.00;;;17.07;;
27013;SDS011;14556;52.222;4.510;2023-09-18T01:22:17;31.27;;;18.13;;
27013;SDS011;14556;52.222;4.510;2023-09-18T01:24:47;35.17;;;19.17;;
27013;SDS011;14556;52.222;4.510;2023-09-18T01:27:15;30.57;;;18.00;;
27013;SDS011;14556;52.222;4.510;2023-09-18T01:29:44;29.77;;;17.80;;
27013;SDS011;14556;52.222;4.510;2023-09-18T01:32:11;33.93;;;19.57;;
27013;SDS011;14556;52.222;4.510;2023-09-18T01:34:56;32.43;;;17.43;;
27013;SDS011;14556;52.222;4.510;2023-09-18T01:37:25;32.10;;;18.67;;
27013;SDS011;14556;52.222;4.510;2023-09-18T01:39:53;25.57;;;16.30;;
27013;SDS011;14556;52.222;4.510;2023-09-18T01:42:20;27.07;;;15.80;;
27013;SDS011;14556;52.222;4.510;2023-09-18T01:44:47;30.50;;;18.27;;
27013;SDS011;14556;52.222;4.510;2023-09-18T01:47:15;29.73;;;18.77;;
27013;SDS011;14556;52.222;4.510;2023-09-18T01:49:43;29.07;;;18.23;;
27013;SDS011;14556;52.222;4.510;2023-09-18T01:52:09;30.27;;;17.50;;
27013;SDS011;14556;52.222;4.510;2023-09-18T01:54:36;28.27;;;17.00;;
27013;SDS011;14556;52.222;4.510;2023-09-18T01:57:07;33.10;;;17.20;;
27013;SDS011;14556;52.222;4.510;2023-09-18T01:59:34;33.77;;;18.87;;
27013;SDS011;14556;52.222;4.510;2023-09-18T02:02:02;29.97;;;17.90;;
27013;SDS011;14556;52.222;4.510;2023-09-18T02:04:33;30.83;;;18.33;;
27013;SDS011;14556;52.222;4.510;2023-09-18T02:07:20;29.07;;;16.43;;
27013;SDS011;14556;52.222;4.510;2023-09-18T02:09:47;22.13;;;14.10;;
27013;SDS011;14556;52.222;4.510;2023-09-18T02:12:13;32.17;;;18.53;;
27013;SDS011;14556;52.222;4.510;2023-09-18T02:14:44;26.87;;;15.37;;
27013;SDS011;14556;52.222;4.510;2023-09-18T02:17:11;26.73;;;13.87;;
27013;SDS011;14556;52.222;4.510;2023-09-18T02:19:38;26.00;;;15.30;;
27013;SDS011;14556;52.222;4.510;2023-09-18T02:22:05;28.37;;;16.10;;
27013;SDS011;14556;52.222;4.510;2023-09-18T02:24:31;29.70;;;18.03;;
27013;SDS011;14556;52.222;4.510;2023-09-18T02:26:58;24.30;;;15.13;;
27013;SDS011;14556;52.222;4.510;2023-09-18T02:29:25;25.50;;;15.67;;
27013;SDS011;14556;52.222;4.510;2023-09-18T02:31:52;32.77;;;17.60;;
27013;SDS011;14556;52.222;4.510;2023-09-18T02:34:19;21.67;;;13.83;;
27013;SDS011;14556;52.222;4.510;2023-09-18T02:36:46;24.07;;;14.67;;
27013;SDS011;14556;52.222;4.510;2023-09-18T02:39:13;22.10;;;13.67;;
27013;SDS011;14556;52.222;4.510;2023-09-18T02:41:40;23.70;;;15.80;;
27013;SDS011;14556;52.222;4.510;2023-09-18T02:44:07;27.93;;;13.57;;
27013;SDS011;14556;52.222;4.510;2023-09-18T02:46:34;27.60;;;16.83;;
27013;SDS011;14556;52.222;4.510;2023-09-18T02:49:00;23.70;;;14.40;;
27013;SDS011;14556;52.222;4.510;2023-09-18T02:51:29;24.93;;;15.70;;
27013;SDS011;14556;52.222;4.510;2023-09-18T02:53:58;26.33;;;16.47;;
27013;SDS011;14556;52.222;4.510;2023-09-18T02:56:26;20.50;;;13.63;;
27013;SDS011;14556;52.222;4.510;2023-09-18T02:58:53;22.77;;;13.03;;
27013;SDS011;14556;52.222;4.510;2023-09-18T03:01:20;22.57;;;13.70;;
27013;SDS011;14556;52.222;4.510;2023-09-18T03:03:47;26.27;;;16.17;;
27013;SDS011;14556;52.222;4.510;2023-09-18T03:06:14;20.23;;;13.57;;
27013;SDS011;14556;52.222;4.510;2023-09-18T03:08:41;20.13;;;12.63;;
27013;SDS011;14556;52.222;4.510;2023-09-18T03:11:13;20.27;;;12.40;;
27013;SDS011;14556;52.222;4.510;2023-09-18T03:13:44;22.30;;;15.60;;
27013;SDS011;14556;52.222;4.510;2023-09-18T03:16:13;24.97;;;16.97;;
27013;SDS011;14556;52.222;4.510;2023-09-18T03:18:42;22.63;;;13.73;;
27013;SDS011;14556;52.222;4.510;2023-09-18T03:21:09;22.77;;;13.53;;
27013;SDS011;14556;52.222;4.510;2023-09-18T03:23:38;23.93;;;14.23;;
27013;SDS011;14556;52.222;4.510;2023-09-18T03:26:05;21.57;;;13.83;;
27013;SDS011;14556;52.222;4.510;2023-09-18T03:28:31;24.97;;;15.53;;
27013;SDS011;14556;52.222;4.510;2023-09-18T03:30:59;20.87;;;12.67;;
27013;SDS011;14556;52.222;4.510;2023-09-18T03:33:27;21.97;;;12.87;;
27013;SDS011;14556;52.222;4.510;2023-09-18T03:35:56;13.27;;;10.03;;
27013;SDS011;14556;52.222;4.510;2023-09-18T03:38:24;26.67;;;14.87;;
27013;SDS011;14556;52.222;4.510;2023-09-18T03:40:51;22.27;;;14.27;;
27013;SDS011;14556;52.222;4.510;2023-09-18T03:43:18;14.93;;;10.73;;
27013;SDS011;14556;52.222;4.510;2023-09-18T03:45:47;15.80;;;9.83;;
27013;SDS011;14556;52.222;4.510;2023-09-18T03:48:14;21.47;;;13.57;;
27013;SDS011;14556;52.222;4.510;2023-09-18T03:50:41;15.17;;;10.43;;
27013;SDS011;14556;52.222;4.510;2023-09-18T03:53:09;12.57;;;9.30;;
27013;SDS011;14556;52.222;4.510;2023-09-18T03:55:36;19.17;;;12.30;;
27013;SDS011;14556;52.222;4.510;2023-09-18T03:58:02;24.50;;;14.47;;
27013;SDS011;14556;52.222;4.510;2023-09-18T04:00:31;19.13;;;14.00;;
27013;SDS011;14556;52.222;4.510;2023-09-18T04:03:00;20.93;;;12.60;;
27013;SDS011;14556;52.222;4.510;2023-09-18T04:05:28;17.73;;;11.80;;
27013;SDS011;14556;52.222;4.510;2023-09-18T04:07:55;20.90;;;11.43;;
27013;SDS011;14556;52.222;4.510;2023-09-18T04:10:21;19.13;;;11.07;;
27013;SDS011;14556;52.222;4.510;2023-09-18T04:12:50;15.93;;;10.80;;
27013;SDS011;14556;52.222;4.510;2023-09-18T04:15:18;14.70;;;11.00;;
27013;SDS011;14556;52.222;4.510;2023-09-18T04:17:45;17.33;;;11.73;;
27013;SDS011;14556;52.222;4.510;2023-09-18T04:20:12;16.83;;;10.53;;
27013;SDS011;14556;52.222;4.510;2023-09-18T04:22:42;15.73;;;10.00;;
27013;SDS011;14556;52.222;4.510;2023-09-18T04:25:09;15.20;;;10.07;;
27013;SDS011;14556;52.222;4.510;2023-09-18T04:27:35;19.03;;;9.77;;
27013;SDS011;14556;52.222;4.510;2023-09-18T04:30:02;14.23;;;9.90;;
27013;SDS011;14556;52.222;4.510;2023-09-18T04:32:29;14.63;;;9.60;;
27013;SDS011;14556;52.222;4.510;2023-09-18T04:34:56;13.27;;;9.97;;
27013;SDS011;14556;52.222;4.510;2023-09-18T04:37:22;15.00;;;9.17;;
27013;SDS011;14556;52.222;4.510;2023-09-18T04:39:49;13.25;;;8.85;;
27013;SDS011;14556;52.222;4.510;2023-09-18T04:42:16;13.50;;;8.57;;
27013;SDS011;14556;52.222;4.510;2023-09-18T04:44:43;12.37;;;8.67;;
27013;SDS011;14556;52.222;4.510;2023-09-18T04:47:10;11.27;;;8.10;;
27013;SDS011;14556;52.222;4.510;2023-09-18T04:49:36;10.97;;;7.63;;
27013;SDS011;14556;52.222;4.510;2023-09-18T04:52:03;13.17;;;7.83;;
27013;SDS011;14556;52.222;4.510;2023-09-18T04:54:31;12.83;;;7.70;;
27013;SDS011;14556;52.222;4.510;2023-09-18T04:57:00;12.30;;;8.30;;
27013;SDS011;14556;52.222;4.510;2023-09-18T04:59:26;11.00;;;7.20;;
27013;SDS011;14556;52.222;4.510;2023-09-18T05:01:53;11.63;;;6.97;;
27013;SDS011;14556;52.222;4.510;2023-09-18T05:04:19;8.93;;;6.77;;
27013;SDS011;14556;52.222;4.510;2023-09-18T05:06:48;11.73;;;7.83;;
27013;SDS011;14556;52.222;4.510;2023-09-18T05:09:14;10.83;;;6.40;;
27013;SDS011;14556;52.222;4.510;2023-09-18T05:11:41;10.07;;;5.63;;
27013;SDS011;14556;52.222;4.510;2023-09-18T05:14:09;9.10;;;5.37;;
27013;SDS011;14556;52.222;4.510;2023-09-18T05:16:36;10.13;;;6.30;;
27013;SDS011;14556;52.222;4.510;2023-09-18T05:19:03;8.53;;;5.83;;
27013;SDS011;14556;52.222;4.510;2023-09-18T05:21:31;7.97;;;5.07;;
27013;SDS011;14556;52.222;4.510;2023-09-18T05:23:57;7.10;;;5.23;;
27013;SDS011;14556;52.222;4.510;2023-09-18T05:26:24;8.77;;;5.10;;
27013;SDS011;14556;52.222;4.510;2023-09-18T05:28:51;8.40;;;5.20;;
27013;SDS011;14556;52.222;4.510;2023-09-18T05:31:22;10.23;;;5.47;;
27013;SDS011;14556;52.222;4.510;2023-09-18T05:33:49;9.27;;;6.23;;
27013;SDS011;14556;52.222;4.510;2023-09-18T05:36:15;12.80;;;7.30;;
27013;SDS011;14556;52.222;4.510;2023-09-18T05:38:43;10.97;;;6.50;;
27013;SDS011;14556;52.222;4.510;2023-09-18T05:41:11;9.53;;;6.17;;
27013;SDS011;14556;52.222;4.510;2023-09-18T05:43:39;10.20;;;5.90;;
27013;SDS011;14556;52.222;4.510;2023-09-18T05:46:05;8.40;;;5.87;;
27013;SDS011;14556;52.222;4.510;2023-09-18T05:48:32;11.50;;;6.93;;
27013;SDS011;14556;52.222;4.510;2023-09-18T05:50:59;9.33;;;6.43;;
27013;SDS011;14556;52.222;4.510;2023-09-18T05:53:26;7.60;;;5.90;;
27013;SDS011;14556;52.222;4.510;2023-09-18T05:55:53;8.93;;;5.97;;
27013;SDS011;14556;52.222;4.510;2023-09-18T05:58:21;6.33;;;5.13;;
27013;SDS011;14556;52.222;4.510;2023-09-18T06:00:51;9.87;;;6.67;;
27013;SDS011;14556;52.222;4.510;2023-09-18T06:03:17;9.80;;;6.10;;
27013;SDS011;14556;52.222;4.510;2023-09-18T06:05:48;7.03;;;5.13;;
27013;SDS011;14556;52.222;4.510;2023-09-18T06:08:15;9.43;;;5.83;;
27013;SDS011;14556;52.222;4.510;2023-09-18T06:10:42;8.83;;;5.17;;
27013;SDS011;14556;52.222;4.510;2023-09-18T06:13:14;8.03;;;5.30;;
27013;SDS011;14556;52.222;4.510;2023-09-18T06:15:41;8.07;;;5.23;;
27013;SDS011;14556;52.222;4.510;2023-09-18T06:18:08;6.60;;;5.00;;
27013;SDS011;14556;52.222;4.510;2023-09-18T06:20:37;6.67;;;5.00;;
27013;SDS011;14556;52.222;4.510;2023-09-18T06:23:04;8.53;;;5.33;;
27013;SDS011;14556;52.222;4.510;2023-09-18T06:25:32;8.27;;;5.70;;
27013;SDS011;14556;52.222;4.510;2023-09-18T06:27:59;7.67;;;4.87;;
27013;SDS011;14556;52.222;4.510;2023-09-18T06:30:27;8.73;;;5.17;;
27013;SDS011;14556;52.222;4.510;2023-09-18T06:32:53;10.73;;;5.53;;
27013;SDS011;14556;52.222;4.510;2023-09-18T06:35:20;10.77;;;5.53;;
27013;SDS011;14556;52.222;4.510;2023-09-18T06:37:47;9.20;;;5.17;;
27013;SDS011;14556;52.222;4.510;2023-09-18T06:40:14;7.83;;;4.93;;
27013;SDS011;14556;52.222;4.510;2023-09-18T06:42:41;8.03;;;5.47;;
27013;SDS011;14556;52.222;4.510;2023-09-18T06:45:07;6.87;;;4.83;;
27013;SDS011;14556;52.222;4.510;2023-09-18T06:47:36;8.97;;;5.83;;
27013;SDS011;14556;52.222;4.510;2023-09-18T06:50:03;7.83;;;4.97;;
27013;SDS011;14556;52.222;4.510;2023-09-18T06:52:32;9.77;;;5.00;;
27013;SDS011;14556;52.222;4.510;2023-09-18T06:55:00;7.00;;;5.30;;
27013;SDS011;14556;52.222;4.510;2023-09-18T06:57:28;8.37;;;5.33;;
27013;SDS011;14556;52.222;4.510;2023-09-18T06:59:54;6.80;;;5.07;;
27013;SDS011;14556;52.222;4.510;2023-09-18T07:02:21;7.37;;;5.60;;
27013;SDS011;14556;52.222;4.510;2023-09-18T07:04:48;7.83;;;5.33;;
27013;SDS011;14556;52.222;4.510;2023-09-18T07:07:19;10.17;;;5.87;;
27013;SDS011;14556;52.222;4.510;2023-09-18T07:09:53;9.07;;;6.03;;
27013;SDS011;14556;52.222;4.510;2023-09-18T07:12:30;10.03;;;6.63;;
27013;SDS011;14556;52.222;4.510;2023-09-18T07:15:00;7.03;;;5.67;;
27013;SDS011;14556;52.222;4.510;2023-09-18T07:17:30;8.80;;;6.30;;
27013;SDS011;14556;52.222;4.510;2023-09-18T07:19:57;9.37;;;6.00;;
27013;SDS011;14556;52.222;4.510;2023-09-18T07:22:25;8.63;;;6.13;;
27013;SDS011;14556;52.222;4.510;2023-09-18T07:24:53;13.27;;;6.57;;
27013;SDS011;14556;52.222;4.510;2023-09-18T07:27:19;8.27;;;6.27;;
27013;SDS011;14556;52.222;4.510;2023-09-18T07:29:46;8.13;;;5.83;;
27013;SDS011;14556;52.222;4.510;2023-09-18T07:32:13;7.63;;;5.80;;
27013;SDS011;14556;52.222;4.510;2023-09-18T07:34:55;8.57;;;5.53;;
27013;SDS011;14556;52.222;4.510;2023-09-18T07:37:22;8.47;;;5.70;;
27013;SDS011;14556;52.222;4.510;2023-09-18T07:39:49;9.63;;;5.17;;
27013;SDS011;14556;52.222;4.510;2023-09-18T07:42:15;7.37;;;4.97;;
27013;SDS011;14556;52.222;4.510;2023-09-18T07:44:41;8.00;;;4.73;;
27013;SDS011;14556;52.222;4.510;2023-09-18T07:47:08;6.53;;;4.03;;
27013;SDS011;14556;52.222;4.510;2023-09-18T07:49:35;6.67;;;4.50;;
27013;SDS011;14556;52.222;4.510;2023-09-18T07:52:01;9.30;;;5.20;;
27013;SDS011;14556;52.222;4.510;2023-09-18T07:54:31;5.67;;;4.50;;
27013;SDS011;14556;52.222;4.510;2023-09-18T07:56:57;4.87;;;4.20;;
27013;SDS011;14556;52.222;4.510;2023-09-18T07:59:27;6.13;;;4.10;;
27013;SDS011;14556;52.222;4.510;2023-09-18T08:01:55;6.23;;;3.77;;
27013;SDS011;14556;52.222;4.510;2023-09-18T08:04:22;4.90;;;3.40;;
27013;SDS011;14556;52.222;4.510;2023-09-18T08:06:49;7.40;;;3.90;;
27013;SDS011;14556;52.222;4.510;2023-09-18T08:09:15;5.00;;;3.47;;
27013;SDS011;14556;52.222;4.510;2023-09-18T08:11:43;5.10;;;3.50;;
27013;SDS011;14556;52.222;4.510;2023-09-18T08:14:13;6.40;;;3.83;;
27013;SDS011;14556;52.222;4.510;2023-09-18T08:16:39;5.60;;;2.90;;
27013;SDS011;14556;52.222;4.510;2023-09-18T08:19:06;4.73;;;3.07;;
27013;SDS011;14556;52.222;4.510;2023-09-18T08:21:33;6.37;;;3.00;;
27013;SDS011;14556;52.222;4.510;2023-09-18T08:24:00;5.90;;;3.20;;
27013;SDS011;14556;52.222;4.510;2023-09-18T08:26:26;4.07;;;2.90;;
27013;SDS011;14556;52.222;4.510;2023-09-18T08:28:54;4.77;;;2.30;;
27013;SDS011;14556;52.222;4.510;2023-09-18T08:31:23;3.83;;;2.40;;
27013;SDS011;14556;52.222;4.510;2023-09-18T08:33:51;4.50;;;2.27;;
27013;SDS011;14556;52.222;4.510;2023-09-18T08:36:18;3.83;;;2.13;;
27013;SDS011;14556;52.222;4.510;2023-09-18T08:38:45;4.73;;;2.37;;
27013;SDS011;14556;52.222;4.510;2023-09-18T08:41:12;3.53;;;2.23;;
27013;SDS011;14556;52.222;4.510;2023-09-18T08:43:40;4.13;;;2.20;;
27013;SDS011;14556;52.222;4.510;2023-09-18T08:46:08;4.40;;;2.10;;
27013;SDS011;14556;52.222;4.510;2023-09-18T08:48:35;3.83;;;1.93;;
27013;SDS011;14556;52.222;4.510;2023-09-18T08:51:06;2.93;;;1.90;;
27013;SDS011;14556;52.222;4.510;2023-09-18T08:53:33;2.40;;;2.20;;
27013;SDS011;14556;52.222;4.510;2023-09-18T08:56:00;2.83;;;2.00;;
27013;SDS011;14556;52.222;4.510;2023-09-18T08:58:30;3.87;;;2.07;;
27013;SDS011;14556;52.222;4.510;2023-09-18T09:00:58;4.30;;;2.47;;
27013;SDS011;14556;52.222;4.510;2023-09-18T09:03:27;2.67;;;2.40;;
27013;SDS011;14556;52.222;4.510;2023-09-18T09:05:54;3.50;;;2.20;;
27013;SDS011;14556;52.222;4.510;2023-09-18T09:08:20;4.23;;;2.30;;
27013;SDS011;14556;52.222;4.510;2023-09-18T09:10:48;3.30;;;2.60;;
27013;SDS011;14556;52.222;4.510;2023-09-18T09:13:15;3.47;;;2.50;;
27013;SDS011;14556;52.222;4.510;2023-09-18T09:15:59;4.60;;;2.10;;
27013;SDS011;14556;52.222;4.510;2023-09-18T09:18:27;4.80;;;1.93;;
27013;SDS011;14556;52.222;4.510;2023-09-18T09:20:58;3.23;;;2.50;;
27013;SDS011;14556;52.222;4.510;2023-09-18T09:23:28;4.03;;;2.40;;
27013;SDS011;14556;52.222;4.510;2023-09-18T09:26:29;5.00;;;2.53;;
27013;SDS011;14556;52.222;4.510;2023-09-18T09:28:49;3.57;;;2.23;;
27013;SDS011;14556;52.222;4.510;2023-09-18T09:31:24;4.60;;;2.60;;
27013;SDS011;14556;52.222;4.510;2023-09-18T09:33:51;4.57;;;2.73;;
27013;SDS011;14556;52.222;4.510;2023-09-18T09:36:22;5.27;;;2.90;;
27013;SDS011;14556;52.222;4.510;2023-09-18T09:38:53;5.67;;;2.80;;
27013;SDS011;14556;52.222;4.510;2023-09-18T09:41:21;4.47;;;2.60;;
27013;SDS011;14556;52.222;4.510;2023-09-18T09:43:47;4.73;;;2.70;;
27013;SDS011;14556;52.222;4.510;2023-09-18T09:46:17;3.70;;;2.57;;
27013;SDS011;14556;52.222;4.510;2023-09-18T09:48:59;3.33;;;3.00;;
27013;SDS011;14556;52.222;4.510;2023-09-18T09:51:27;3.10;;;2.80;;
27013;SDS011;14556;52.222;4.510;2023-09-18T09:53:54;3.30;;;3.00;;
27013;SDS011;14556;52.222;4.510;2023-09-18T09:56:21;3.73;;;2.80;;
27013;SDS011;14556;52.222;4.510;2023-09-18T09:59:01;3.40;;;2.73;;
27013;SDS011;14556;52.222;4.510;2023-09-18T10:01:34;4.10;;;3.00;;
27013;SDS011;14556;52.222;4.510;2023-09-18T10:04:05;6.50;;;3.07;;
27013;SDS011;14556;52.222;4.510;2023-09-18T10:06:35;4.00;;;3.20;;
27013;SDS011;14556;52.222;4.510;2023-09-18T10:09:02;3.57;;;2.73;;
27013;SDS011;14556;52.222;4.510;2023-09-18T10:11:30;2.87;;;2.43;;
27013;SDS011;14556;52.222;4.510;2023-09-18T10:14:07;3.73;;;2.80;;
27013;SDS011;14556;52.222;4.510;2023-09-18T10:16:36;3.60;;;2.80;;
27013;SDS011;14556;52.222;4.510;2023-09-18T10:24:30;3.90;;;3.00;;
27013;SDS011;14556;52.222;4.510;2023-09-18T10:27:03;4.33;;;3.27;;
27013;SDS011;14556;52.222;4.510;2023-09-18T10:29:34;3.93;;;3.17;;
27013;SDS011;14556;52.222;4.510;2023-09-18T10:32:03;3.47;;;3.17;;
27013;SDS011;14556;52.222;4.510;2023-09-18T10:34:31;4.00;;;3.50;;
27013;SDS011;14556;52.222;4.510;2023-09-18T10:37:00;4.53;;;3.03;;
27013;SDS011;14556;52.222;4.510;2023-09-18T10:39:28;4.10;;;3.07;;
27013;SDS011;14556;52.222;4.510;2023-09-18T10:41:56;4.07;;;3.10;;
27013;SDS011;14556;52.222;4.510;2023-09-18T10:44:29;3.77;;;2.70;;
27013;SDS011;14556;52.222;4.510;2023-09-18T10:46:59;3.20;;;2.90;;
27013;SDS011;14556;52.222;4.510;2023-09-18T10:49:28;3.60;;;2.70;;
27013;SDS011;14556;52.222;4.510;2023-09-18T10:51:55;2.40;;;2.20;;
27013;SDS011;14556;52.222;4.510;2023-09-18T10:54:25;4.17;;;2.63;;
27013;SDS011;14556;52.222;4.510;2023-09-18T10:56:52;3.40;;;2.70;;
27013;SDS011;14556;52.222;4.510;2023-09-18T10:59:19;3.23;;;2.20;;
27013;SDS011;14556;52.222;4.510;2023-09-18T11:01:49;4.70;;;2.30;;
27013;SDS011;14556;52.222;4.510;2023-09-18T11:04:19;3.50;;;2.70;;
27013;SDS011;14556;52.222;4.510;2023-09-18T11:09:26;5.40;;;2.53;;
27013;SDS011;14556;52.222;4.510;2023-09-18T11:17:31;2.87;;;2.20;;
27013;SDS011;14556;52.222;4.510;2023-09-18T11:20:08;4.93;;;2.83;;
27013;SDS011;14556;52.222;4.510;2023-09-18T11:25:42;2.37;;;2.17;;
27013;SDS011;14556;52.222;4.510;2023-09-18T11:28:13;3.80;;;2.43;;
27013;SDS011;14556;52.222;4.510;2023-09-18T11:30:48;2.93;;;2.63;;
27013;SDS011;14556;52.222;4.510;2023-09-18T11:33:15;3.73;;;1.87;;
27013;SDS011;14556;52.222;4.510;2023-09-18T11:35:55;3.70;;;2.20;;
27013;SDS011;14556;52.222;4.510;2023-09-18T11:38:22;3.57;;;2.17;;
27013;SDS011;14556;52.222;4.510;2023-09-18T11:40:49;3.50;;;2.10;;
27013;SDS011;14556;52.222;4.510;2023-09-18T11:43:23;4.33;;;2.07;;
27013;SDS011;14556;52.222;4.510;2023-09-18T11:45:53;2.90;;;2.30;;
27013;SDS011;14556;52.222;4.510;2023-09-18T11:48:20;2.70;;;2.00;;
27013;SDS011;14556;52.222;4.510;2023-09-18T11:50:49;2.57;;;2.13;;
27013;SDS011;14556;52.222;4.510;2023-09-18T11:53:18;3.10;;;1.67;;
27013;SDS011;14556;52.222;4.510;2023-09-18T11:55:46;2.20;;;1.90;;
27013;SDS011;14556;52.222;4.510;2023-09-18T11:58:13;3.00;;;1.70;;
27013;SDS011;14556;52.222;4.510;2023-09-18T12:00:40;2.77;;;2.03;;
27013;SDS011;14556;52.222;4.510;2023-09-18T12:03:13;4.00;;;1.73;;
27013;SDS011;14556;52.222;4.510;2023-09-18T12:05:44;2.97;;;1.50;;
27013;SDS011;14556;52.222;4.510;2023-09-18T12:08:13;2.30;;;1.60;;
27013;SDS011;14556;52.222;4.510;2023-09-18T12:10:39;3.47;;;1.60;;
27013;SDS011;14556;52.222;4.510;2023-09-18T12:13:08;1.70;;;1.60;;
27013;SDS011;14556;52.222;4.510;2023-09-18T12:15:34;2.57;;;1.70;;
27013;SDS011;14556;52.222;4.510;2023-09-18T12:18:04;1.97;;;1.43;;
27013;SDS011;14556;52.222;4.510;2023-09-18T12:20:32;2.13;;;1.70;;
27013;SDS011;14556;52.222;4.510;2023-09-18T12:23:01;1.70;;;1.43;;
27013;SDS011;14556;52.222;4.510;2023-09-18T12:25:28;4.40;;;2.27;;
27013;SDS011;14556;52.222;4.510;2023-09-18T12:27:55;4.00;;;1.90;;
27013;SDS011;14556;52.222;4.510;2023-09-18T12:30:22;2.57;;;1.70;;
27013;SDS011;14556;52.222;4.510;2023-09-18T12:32:50;2.20;;;1.80;;
27013;SDS011;14556;52.222;4.510;2023-09-18T12:35:17;3.03;;;1.80;;
27013;SDS011;14556;52.222;4.510;2023-09-18T12:37:45;2.53;;;1.83;;
27013;SDS011;14556;52.222;4.510;2023-09-18T12:40:33;3.60;;;1.63;;
27013;SDS011;14556;52.222;4.510;2023-09-18T12:42:59;2.50;;;1.60;;
27013;SDS011;14556;52.222;4.510;2023-09-18T12:45:26;2.50;;;1.27;;
27013;SDS011;14556;52.222;4.510;2023-09-18T12:47:54;3.13;;;1.97;;
27013;SDS011;14556;52.222;4.510;2023-09-18T12:50:21;2.90;;;1.60;;
27013;SDS011;14556;52.222;4.510;2023-09-18T12:52:47;1.63;;;1.53;;
27013;SDS011;14556;52.222;4.510;2023-09-18T12:55:23;1.63;;;1.53;;
27013;SDS011;14556;52.222;4.510;2023-09-18T12:57:52;3.20;;;1.70;;
27013;SDS011;14556;52.222;4.510;2023-09-18T13:00:19;2.27;;;1.70;;
27013;SDS011;14556;52.222;4.510;2023-09-18T13:02:49;3.10;;;2.10;;
27013;SDS011;14556;52.222;4.510;2023-09-18T13:05:19;3.03;;;1.90;;
27013;SDS011;14556;52.222;4.510;2023-09-18T13:07:45;4.00;;;2.60;;
27013;SDS011;14556;52.222;4.510;2023-09-18T13:10:12;4.40;;;2.47;;
27013;SDS011;14556;52.222;4.510;2023-09-18T13:12:41;2.90;;;2.10;;
27013;SDS011;14556;52.222;4.510;2023-09-18T13:15:07;5.30;;;2.30;;
27013;SDS011;14556;52.222;4.510;2023-09-18T13:17:42;2.53;;;2.17;;
27013;SDS011;14556;52.222;4.510;2023-09-18T13:20:12;3.00;;;2.40;;
27013;SDS011;14556;52.222;4.510;2023-09-18T13:22:39;3.80;;;2.07;;
27013;SDS011;14556;52.222;4.510;2023-09-18T13:25:08;2.37;;;2.07;;
27013;SDS011;14556;52.222;4.510;2023-09-18T13:27:35;2.77;;;2.03;;
27013;SDS011;14556;52.222;4.510;2023-09-18T13:30:02;2.50;;;1.90;;
27013;SDS011;14556;52.222;4.510;2023-09-18T13:32:36;2.27;;;2.07;;
27013;SDS011;14556;52.222;4.510;2023-09-18T13:35:06;1.73;;;1.63;;
27013;SDS011;14556;52.222;4.510;2023-09-18T13:37:33;2.97;;;1.70;;
27013;SDS011;14556;52.222;4.510;2023-09-18T13:40:00;2.37;;;2.13;;
27013;SDS011;14556;52.222;4.510;2023-09-18T13:42:32;2.63;;;2.07;;
27013;SDS011;14556;52.222;4.510;2023-09-18T13:44:59;2.57;;;2.00;;
27013;SDS011;14556;52.222;4.510;2023-09-18T13:47:48;2.30;;;2.10;;
27013;SDS011;14556;52.222;4.510;2023-09-18T13:50:16;4.27;;;2.20;;
27013;SDS011;14556;52.222;4.510;2023-09-18T13:52:43;3.30;;;2.20;;
27013;SDS011;14556;52.222;4.510;2023-09-18T13:55:09;3.00;;;1.90;;
27013;SDS011;14556;52.222;4.510;2023-09-18T13:57:36;4.07;;;2.20;;
27013;SDS011;14556;52.222;4.510;2023-09-18T14:00:02;3.10;;;1.87;;
27013;SDS011;14556;52.222;4.510;2023-09-18T14:02:33;2.47;;;1.80;;
27013;SDS011;14556;52.222;4.510;2023-09-18T14:04:59;2.23;;;1.83;;
27013;SDS011;14556;52.222;4.510;2023-09-18T14:07:26;2.53;;;1.90;;
27013;SDS011;14556;52.222;4.510;2023-09-18T14:09:52;3.10;;;1.70;;
27013;SDS011;14556;52.222;4.510;2023-09-18T14:12:19;2.77;;;1.80;;
27013;SDS011;14556;52.222;4.510;2023-09-18T14:14:46;3.40;;;1.63;;
27013;SDS011;14556;52.222;4.510;2023-09-18T14:17:16;2.67;;;1.77;;
27013;SDS011;14556;52.222;4.510;2023-09-18T14:19:45;2.73;;;1.87;;
27013;SDS011;14556;52.222;4.510;2023-09-18T14:22:13;4.17;;;1.80;;
27013;SDS011;14556;52.222;4.510;2023-09-18T14:24:40;4.57;;;1.80;;
27013;SDS011;14556;52.222;4.510;2023-09-18T14:27:06;3.73;;;1.90;;
27013;SDS011;14556;52.222;4.510;2023-09-18T14:29:33;4.23;;;2.00;;
27013;SDS011;14556;52.222;4.510;2023-09-18T14:32:00;3.90;;;2.17;;
27013;SDS011;14556;52.222;4.510;2023-09-18T14:34:29;5.70;;;1.90;;
27013;SDS011;14556;52.222;4.510;2023-09-18T14:36:56;3.33;;;1.77;;
27013;SDS011;14556;52.222;4.510;2023-09-18T14:39:23;2.20;;;1.23;;
27013;SDS011;14556;52.222;4.510;2023-09-18T14:41:50;2.23;;;1.50;;
27013;SDS011;14556;52.222;4.510;2023-09-18T14:44:19;1.60;;;1.13;;
27013;SDS011;14556;52.222;4.510;2023-09-18T14:46:45;2.50;;;1.40;;
27013;SDS011;14556;52.222;4.510;2023-09-18T14:49:12;3.37;;;1.37;;
27013;SDS011;14556;52.222;4.510;2023-09-18T14:51:39;1.57;;;1.23;;
27013;SDS011;14556;52.222;4.510;2023-09-18T14:54:07;3.03;;;1.30;;
27013;SDS011;14556;52.222;4.510;2023-09-18T14:56:34;3.77;;;1.00;;
27013;SDS011;14556;52.222;4.510;2023-09-18T14:59:05;2.13;;;0.97;;
27013;SDS011;14556;52.222;4.510;2023-09-18T15:01:34;3.00;;;0.90;;
27013;SDS011;14556;52.222;4.510;2023-09-18T15:04:00;2.80;;;1.43;;